createdAt,value
2022-12-19T00:00:50.012Z,17.70
2022-12-19T00:03:28.093Z,18.10
2022-12-19T00:05:56.476Z,14.70
2022-12-19T00:08:24.603Z,15.60
2022-12-19T00:10:59.381Z,16.70
2022-12-19T00:13:29.547Z,15.60
2022-12-19T00:16:08.827Z,15.00
2022-12-19T00:18:39.877Z,15.20
2022-12-19T00:21:08.752Z,16.40
2022-12-19T00:23:37.288Z,14.70
2022-12-19T00:26:17.613Z,14.20
2022-12-19T00:28:52.352Z,16.60
2022-12-19T00:31:22.848Z,15.50
2022-12-19T00:33:51.862Z,14.60
2022-12-19T00:36:24.130Z,15.90
2022-12-19T00:38:55.575Z,15.90
2022-12-19T00:41:33.481Z,16.00
2022-12-19T00:44:07.832Z,14.90
2022-12-19T00:46:36.999Z,16.30
2022-12-19T00:49:06.264Z,14.70
2022-12-19T00:51:37.339Z,15.00
2022-12-19T00:54:07.260Z,14.70
2022-12-19T00:56:37.981Z,14.40
2022-12-19T00:59:09.258Z,16.30
2022-12-19T01:01:41.671Z,14.00
2022-12-19T01:04:31.225Z,15.60
2022-12-19T01:07:03.144Z,16.80
2022-12-19T01:09:37.220Z,15.00
2022-12-19T01:12:25.113Z,15.80
2022-12-19T01:15:04.514Z,16.60
2022-12-19T01:17:44.085Z,15.00
2022-12-19T01:20:26.190Z,13.30
2022-12-19T01:23:00.163Z,14.90
2022-12-19T01:25:29.556Z,15.00
2022-12-19T01:27:57.969Z,15.30
2022-12-19T01:30:27.690Z,13.20
2022-12-19T01:32:58.819Z,14.80
2022-12-19T01:35:28.757Z,14.10
2022-12-19T01:38:07.935Z,14.90
2022-12-19T01:40:37.783Z,13.20
2022-12-19T01:43:12.726Z,13.10
2022-12-19T01:45:45.943Z,14.70
2022-12-19T01:48:44.431Z,14.50
2022-12-19T01:51:22.903Z,13.70
2022-12-19T01:54:04.394Z,15.50
2022-12-19T01:56:38.993Z,14.30
2022-12-19T01:59:14.433Z,12.80
2022-12-19T02:01:51.066Z,14.50
2022-12-19T02:04:32.182Z,13.90
2022-12-19T02:07:15.075Z,14.10
2022-12-19T02:09:49.602Z,13.30
2022-12-19T02:12:26.574Z,12.30
2022-12-19T02:15:00.927Z,13.00
2022-12-19T02:17:45.205Z,12.80
2022-12-19T02:20:29.404Z,13.00
2022-12-19T02:23:24.615Z,13.60
2022-12-19T02:26:53.433Z,13.60
2022-12-19T02:29:53.775Z,12.90
2022-12-19T02:32:52.974Z,12.00
2022-12-19T02:36:12.560Z,13.50
2022-12-19T02:38:50.968Z,12.90
2022-12-19T02:41:23.956Z,13.70
2022-12-19T02:43:58.896Z,13.20
2022-12-19T02:46:29.580Z,14.90
2022-12-19T02:48:59.318Z,13.10
2022-12-19T02:51:27.513Z,13.00
2022-12-19T02:53:55.585Z,13.50
2022-12-19T02:56:55.000Z,11.90
2022-12-19T02:59:53.957Z,13.90
2022-12-19T03:02:53.846Z,13.20
2022-12-19T03:06:23.854Z,13.80
2022-12-19T03:09:30.414Z,11.90
2022-12-19T03:12:14.095Z,12.30
2022-12-19T03:14:47.978Z,11.90
2022-12-19T03:17:19.486Z,11.80
2022-12-19T03:19:48.610Z,12.20
2022-12-19T03:22:16.746Z,12.50
2022-12-19T03:24:44.965Z,11.80
2022-12-19T03:27:24.317Z,12.10
2022-12-19T03:30:05.171Z,13.10
2022-12-19T03:32:36.602Z,12.30
2022-12-19T03:35:17.185Z,13.50
2022-12-19T03:37:48.028Z,11.30
2022-12-19T03:40:22.343Z,12.50
2022-12-19T03:43:11.920Z,11.40
2022-12-19T03:46:25.995Z,10.90
2022-12-19T03:48:55.209Z,11.80
2022-12-19T03:51:59.231Z,11.80
2022-12-19T03:54:33.084Z,12.10
2022-12-19T03:57:07.819Z,15.20
2022-12-19T04:00:04.547Z,12.80
2022-12-19T04:02:45.745Z,13.70
2022-12-19T04:05:20.131Z,14.30
2022-12-19T04:07:50.284Z,13.30
2022-12-19T04:10:22.662Z,12.80
2022-12-19T04:13:00.269Z,12.80
2022-12-19T04:15:54.389Z,11.90
2022-12-19T04:18:23.498Z,11.90
2022-12-19T04:21:02.559Z,11.80
2022-12-19T04:23:39.229Z,11.70
2022-12-19T04:26:08.844Z,12.00
2022-12-19T04:28:54.680Z,11.60
2022-12-19T04:31:23.964Z,11.60
2022-12-19T04:33:52.203Z,12.00
2022-12-19T04:36:20.344Z,11.30
2022-12-19T04:38:48.868Z,12.00
2022-12-19T04:41:17.137Z,13.00
2022-12-19T04:43:45.317Z,12.80
2022-12-19T04:46:13.417Z,12.80
2022-12-19T04:48:41.573Z,12.20
2022-12-19T04:51:10.243Z,13.50
2022-12-19T04:53:38.422Z,13.60
2022-12-19T04:56:07.609Z,12.80
2022-12-19T04:58:35.991Z,12.60
2022-12-19T05:01:07.086Z,12.50
2022-12-19T05:03:37.077Z,12.30
2022-12-19T05:06:14.950Z,12.30
2022-12-19T05:08:44.202Z,11.70
2022-12-19T05:11:19.396Z,12.20
2022-12-19T05:13:50.127Z,11.30
2022-12-19T05:16:18.928Z,12.00
2022-12-19T05:18:47.444Z,12.50
2022-12-19T05:21:15.540Z,11.70
2022-12-19T05:23:43.714Z,16.20
2022-12-19T05:26:12.295Z,28.10
2022-12-19T05:28:40.429Z,31.10
2022-12-19T05:31:13.753Z,22.50
2022-12-19T05:33:42.986Z,31.20
2022-12-19T05:36:14.058Z,27.40
2022-12-19T05:38:42.863Z,28.30
2022-12-19T05:41:18.893Z,27.20
2022-12-19T05:43:54.701Z,29.70
2022-12-19T05:46:24.306Z,31.70
2022-12-19T05:48:53.136Z,34.30
2022-12-19T05:51:22.088Z,28.20
2022-12-19T05:53:50.412Z,28.90
2022-12-19T05:56:22.070Z,27.60
2022-12-19T05:58:50.839Z,28.00
2022-12-19T06:01:24.045Z,20.60
2022-12-19T06:03:54.115Z,24.40
2022-12-19T06:06:26.229Z,26.60
2022-12-19T06:08:58.753Z,24.50
2022-12-19T06:11:27.698Z,19.20
2022-12-19T06:13:55.971Z,23.50
2022-12-19T06:16:24.799Z,19.50
2022-12-19T06:18:53.203Z,16.80
2022-12-19T06:21:23.765Z,21.30
2022-12-19T06:23:52.016Z,19.60
2022-12-19T06:26:22.603Z,18.60
2022-12-19T06:28:52.853Z,19.90
2022-12-19T06:31:24.135Z,20.30
2022-12-19T06:33:52.988Z,30.00
2022-12-19T06:36:30.322Z,17.20
2022-12-19T06:38:59.013Z,16.70
2022-12-19T06:41:46.293Z,31.40
2022-12-19T06:44:17.144Z,28.80
2022-12-19T06:46:45.332Z,25.30
2022-12-19T06:49:13.929Z,22.50
2022-12-19T06:51:42.508Z,19.70
2022-12-19T06:54:12.461Z,23.00
2022-12-19T06:56:43.143Z,21.50
2022-12-19T06:59:16.558Z,19.50
2022-12-19T07:02:00.825Z,17.10
2022-12-19T07:04:51.876Z,19.10
2022-12-19T07:07:20.182Z,18.90
2022-12-19T07:09:49.006Z,18.60
2022-12-19T07:12:17.247Z,19.30
2022-12-19T07:14:50.236Z,17.00
2022-12-19T07:17:24.764Z,17.10
2022-12-19T07:19:58.094Z,16.10
2022-12-19T07:22:31.962Z,15.80
2022-12-19T07:25:02.700Z,16.10
2022-12-19T07:27:35.697Z,18.90
2022-12-19T07:30:07.952Z,16.40
2022-12-19T07:32:36.670Z,15.60
2022-12-19T07:35:07.000Z,15.50
2022-12-19T07:37:35.583Z,16.50
2022-12-19T07:40:04.963Z,15.80
2022-12-19T07:42:34.257Z,15.00
2022-12-19T07:45:02.932Z,16.80
2022-12-19T07:47:31.522Z,17.00
2022-12-19T07:49:59.808Z,15.10
2022-12-19T07:52:28.276Z,16.90
2022-12-19T07:54:56.453Z,17.30
2022-12-19T07:57:24.627Z,16.70
2022-12-19T07:59:53.102Z,16.70
2022-12-19T08:02:21.559Z,16.30
2022-12-19T08:04:50.966Z,16.70
2022-12-19T08:07:19.264Z,16.10
2022-12-19T08:09:47.542Z,17.30
2022-12-19T08:12:17.018Z,16.00
2022-12-19T08:14:45.339Z,15.70
2022-12-19T08:17:21.390Z,15.40
2022-12-19T08:19:49.999Z,16.00
2022-12-19T08:22:18.240Z,15.50
2022-12-19T08:24:46.390Z,16.40
2022-12-19T08:27:17.176Z,17.40
2022-12-19T08:29:45.351Z,16.80
2022-12-19T08:32:20.465Z,17.30
2022-12-19T08:34:50.521Z,15.70
2022-12-19T08:37:18.691Z,16.40
2022-12-19T08:39:46.940Z,17.30
2022-12-19T08:42:15.024Z,14.70
2022-12-19T08:44:43.279Z,14.90
2022-12-19T08:47:11.429Z,14.90
2022-12-19T08:49:39.649Z,15.40
2022-12-19T08:52:08.143Z,15.10
2022-12-19T08:54:36.714Z,15.90
2022-12-19T08:57:04.914Z,14.10
2022-12-19T08:59:33.100Z,14.20
2022-12-19T09:02:02.530Z,14.40
2022-12-19T09:06:00.116Z,13.50
2022-12-19T09:07:19.277Z,13.80
2022-12-19T09:09:47.484Z,13.70
2022-12-19T09:12:18.392Z,14.80
2022-12-19T09:14:46.972Z,13.10
2022-12-19T09:17:15.396Z,12.90
2022-12-19T09:19:47.500Z,13.60
2022-12-19T09:22:16.957Z,13.90
2022-12-19T09:24:45.920Z,12.90
2022-12-19T09:27:17.869Z,12.90
2022-12-19T09:29:51.952Z,12.80
2022-12-19T09:32:20.297Z,12.60
2022-12-19T09:34:48.378Z,12.70
2022-12-19T09:37:17.859Z,12.40
2022-12-19T09:39:47.681Z,13.00
2022-12-19T09:42:21.932Z,12.50
2022-12-19T09:45:10.534Z,12.20
2022-12-19T09:47:47.259Z,11.40
2022-12-19T09:50:31.753Z,11.20
2022-12-19T09:53:13.251Z,11.30
2022-12-19T09:55:42.754Z,11.10
2022-12-19T09:58:54.219Z,11.00
2022-12-19T10:01:30.916Z,10.60
2022-12-19T10:04:13.059Z,11.20
2022-12-19T10:07:09.003Z,12.20
2022-12-19T10:11:13.994Z,12.80
2022-12-19T10:12:51.924Z,10.60
2022-12-19T10:15:46.181Z,10.00
2022-12-19T10:18:57.033Z,10.60
2022-12-19T10:22:17.269Z,9.70
2022-12-19T10:25:17.414Z,10.10
2022-12-19T10:28:35.996Z,9.30
2022-12-19T10:31:33.010Z,9.90
2022-12-19T10:34:38.707Z,8.70
2022-12-19T10:37:40.880Z,9.10
2022-12-19T10:40:28.623Z,9.20
2022-12-19T10:43:22.878Z,10.20
2022-12-19T10:45:59.663Z,8.10
2022-12-19T10:48:31.295Z,9.00
2022-12-19T10:51:00.677Z,9.20
2022-12-19T10:53:35.132Z,9.70
2022-12-19T10:56:20.702Z,8.20
2022-12-19T10:58:57.455Z,8.70
2022-12-19T11:01:36.180Z,7.60
2022-12-19T11:04:30.211Z,9.10
2022-12-19T11:07:07.588Z,8.40
2022-12-19T11:09:41.875Z,8.90
2022-12-19T11:14:28.168Z,8.70
2022-12-19T11:21:07.240Z,8.60
2022-12-19T11:27:37.709Z,9.70
2022-12-19T11:29:32.936Z,8.40
2022-12-19T11:30:09.923Z,8.70
2022-12-19T11:30:38.648Z,8.70
2022-12-19T11:32:44.230Z,9.00
2022-12-19T11:35:24.686Z,8.70
2022-12-19T11:37:57.379Z,8.80
2022-12-19T11:40:51.070Z,8.80
2022-12-19T11:43:46.681Z,10.20
2022-12-19T11:46:40.498Z,9.60
2022-12-19T11:49:35.133Z,14.00
2022-12-19T11:55:56.138Z,37.60
2022-12-19T11:58:31.256Z,38.10
2022-12-19T12:01:20.769Z,37.10
2022-12-19T12:04:19.307Z,35.50
2022-12-19T12:06:56.625Z,34.30
2022-12-19T12:15:03.510Z,33.80
2022-12-19T12:22:34.791Z,34.10
2022-12-19T12:31:09.270Z,31.20
2022-12-19T12:31:11.703Z,33.40
2022-12-19T12:31:40.359Z,39.60
2022-12-19T12:31:40.925Z,35.90
2022-12-19T12:32:00.732Z,39.00
2022-12-19T12:35:51.511Z,37.50
2022-12-19T12:38:36.076Z,31.40
2022-12-19T12:41:07.845Z,29.00
2022-12-19T12:44:00.811Z,30.70
2022-12-19T12:46:39.939Z,27.40
2022-12-19T12:49:59.159Z,26.50
2022-12-19T12:52:55.580Z,26.40
2022-12-19T12:55:41.424Z,27.10
2022-12-19T13:01:28.598Z,25.50
2022-12-19T13:04:02.724Z,25.60
2022-12-19T13:06:39.910Z,23.60
2022-12-19T13:09:20.062Z,26.00
2022-12-19T13:12:13.163Z,23.50
2022-12-19T13:14:46.745Z,25.60
2022-12-19T13:17:24.192Z,19.70
2022-12-19T13:20:17.957Z,21.30
2022-12-19T13:22:58.802Z,33.30
2022-12-19T13:25:27.037Z,45.40
2022-12-19T13:28:33.684Z,55.30
2022-12-19T13:31:15.477Z,53.70
2022-12-19T13:33:56.232Z,43.30
2022-12-19T13:39:49.683Z,32.90
2022-12-19T13:40:10.858Z,35.30
2022-12-19T13:43:25.077Z,27.20
2022-12-19T13:46:03.035Z,24.00
2022-12-19T13:48:41.644Z,24.20
2022-12-19T13:51:12.515Z,19.40
2022-12-19T13:53:43.359Z,20.30
2022-12-19T13:56:18.110Z,16.20
2022-12-19T13:58:58.162Z,19.10
2022-12-19T14:01:38.479Z,17.30
2022-12-19T14:04:12.144Z,16.70
2022-12-19T14:06:54.253Z,16.60
2022-12-19T14:11:33.442Z,14.60
2022-12-19T14:13:57.670Z,14.10
2022-12-19T14:15:52.511Z,14.70
2022-12-19T14:18:42.688Z,13.90
2022-12-19T14:22:04.466Z,13.80
2022-12-19T14:24:21.842Z,13.00
2022-12-19T14:28:18.954Z,11.70
2022-12-19T14:30:30.292Z,13.60
2022-12-19T14:33:45.213Z,14.60
2022-12-19T14:36:09.090Z,27.80
2022-12-19T14:39:24.940Z,70.60
2022-12-19T14:41:48.220Z,90.40
2022-12-19T14:52:25.971Z,95.40
2022-12-19T14:55:41.771Z,124.70
2022-12-19T14:58:51.531Z,109.30
2022-12-19T15:01:09.225Z,79.00
2022-12-19T15:03:35.331Z,83.80
2022-12-19T15:07:06.042Z,82.10
2022-12-19T15:10:59.640Z,70.60
2022-12-19T15:14:55.228Z,69.90
2022-12-19T18:46:51.855Z,17.10
2022-12-19T18:49:20.649Z,17.20
2022-12-19T18:51:52.710Z,16.90
2022-12-19T18:54:22.614Z,27.20
2022-12-19T18:56:52.011Z,28.20
2022-12-19T18:59:21.618Z,34.50
2022-12-19T19:01:50.202Z,40.00
2022-12-19T19:04:19.883Z,42.70
2022-12-19T19:06:52.267Z,39.40
2022-12-19T19:09:21.824Z,40.10
2022-12-19T19:11:50.088Z,37.80
2022-12-19T19:14:18.166Z,38.60
2022-12-19T19:16:46.371Z,41.70
2022-12-19T19:19:18.436Z,34.50
2022-12-19T19:21:46.781Z,36.30
2022-12-19T19:24:21.831Z,38.20
2022-12-19T19:26:50.182Z,31.70
2022-12-19T19:29:19.815Z,37.30
2022-12-19T19:31:51.352Z,33.00
2022-12-19T19:34:31.812Z,32.20
2022-12-19T19:37:03.980Z,36.30
2022-12-19T19:39:34.308Z,35.90
2022-12-19T19:42:02.990Z,31.00
2022-12-19T19:44:31.267Z,26.90
2022-12-19T19:46:59.833Z,37.60
2022-12-19T19:49:28.240Z,31.40
2022-12-19T19:52:02.160Z,29.20
2022-12-19T19:54:32.398Z,28.80
2022-12-19T19:57:00.944Z,28.40
2022-12-19T19:59:31.379Z,26.80
2022-12-19T20:01:59.897Z,28.10
2022-12-19T20:04:28.237Z,26.30
2022-12-19T20:06:56.610Z,25.10
2022-12-19T20:09:24.786Z,25.40
2022-12-19T20:11:52.965Z,26.40
2022-12-19T20:14:21.126Z,25.70
2022-12-19T20:16:50.731Z,26.70
2022-12-19T20:19:19.066Z,25.00
2022-12-19T20:21:47.316Z,25.30
2022-12-19T20:24:15.473Z,23.40
2022-12-19T20:26:43.747Z,24.30
2022-12-19T20:29:11.933Z,26.00
2022-12-19T20:31:41.508Z,25.90
2022-12-19T20:34:09.991Z,25.00
2022-12-19T20:36:38.181Z,19.90
2022-12-19T20:39:06.737Z,21.30
2022-12-19T20:41:35.351Z,21.70
2022-12-19T20:44:03.837Z,25.40
2022-12-19T20:46:32.168Z,19.80
2022-12-19T20:49:00.879Z,21.80
2022-12-19T20:51:29.022Z,17.60
2022-12-19T20:53:57.239Z,18.90
2022-12-19T20:56:26.097Z,19.60
2022-12-19T20:58:54.713Z,20.00
2022-12-19T21:01:25.404Z,21.90
2022-12-19T21:03:53.871Z,21.30
2022-12-19T21:06:27.406Z,20.80
2022-12-19T21:08:57.134Z,18.00
2022-12-19T21:11:26.598Z,17.00
2022-12-19T21:13:54.829Z,18.30
2022-12-19T21:16:23.754Z,17.60
2022-12-19T21:18:52.176Z,17.70
2022-12-19T21:21:26.162Z,19.30
2022-12-19T21:23:56.043Z,18.50
2022-12-19T21:26:26.025Z,19.90
2022-12-19T21:28:57.819Z,17.50
2022-12-19T21:31:29.805Z,18.40
2022-12-19T21:34:00.404Z,17.80
2022-12-19T21:36:30.769Z,18.40
2022-12-19T21:39:01.913Z,17.40
2022-12-19T21:41:31.667Z,17.40
2022-12-19T21:44:00.703Z,20.10
2022-12-19T21:46:35.705Z,16.70
2022-12-19T21:49:03.901Z,20.70
2022-12-19T21:51:32.760Z,19.20
2022-12-19T21:54:04.104Z,16.00
2022-12-19T21:56:35.645Z,16.40
2022-12-19T21:59:07.828Z,17.20
2022-12-19T22:01:36.335Z,17.00
2022-12-19T22:04:17.994Z,17.40
2022-12-19T22:06:47.522Z,17.30
2022-12-19T22:09:20.025Z,15.00
2022-12-19T22:11:48.753Z,16.80
2022-12-19T22:14:17.888Z,17.90
2022-12-19T22:16:46.330Z,15.10
2022-12-19T22:19:18.110Z,14.90
2022-12-19T22:21:47.481Z,15.80
2022-12-19T22:24:17.383Z,18.00
2022-12-19T22:26:46.008Z,14.50
2022-12-19T22:29:16.437Z,17.20
2022-12-19T22:31:46.204Z,13.60
2022-12-19T22:34:18.639Z,16.00
2022-12-19T22:36:48.908Z,13.70
2022-12-19T22:39:19.782Z,16.90
2022-12-19T22:41:48.038Z,15.00
2022-12-19T22:44:23.501Z,16.70
2022-12-19T22:46:52.507Z,14.40
2022-12-19T22:49:21.007Z,15.20
2022-12-19T22:51:50.038Z,16.70
2022-12-19T22:54:18.242Z,14.90
2022-12-19T22:56:50.120Z,15.60
2022-12-19T22:59:18.385Z,15.80
2022-12-19T23:01:46.661Z,14.80
2022-12-19T23:04:16.048Z,15.20
2022-12-19T23:06:44.685Z,14.80
2022-12-19T23:09:17.322Z,15.10
2022-12-19T23:11:49.226Z,16.10
2022-12-19T23:14:19.824Z,14.00
2022-12-19T23:16:48.659Z,14.30
2022-12-19T23:19:18.474Z,14.90
2022-12-19T23:21:46.814Z,15.50
2022-12-19T23:24:15.181Z,15.70
2022-12-19T23:26:43.374Z,15.00
2022-12-19T23:29:15.319Z,15.70
2022-12-19T23:31:46.659Z,16.80
2022-12-19T23:34:16.577Z,14.90
2022-12-19T23:37:10.300Z,16.90
2022-12-19T23:39:33.819Z,14.60
2022-12-19T23:42:02.178Z,15.20
2022-12-19T23:44:30.605Z,15.90
2022-12-19T23:47:02.942Z,16.00
2022-12-19T23:49:33.956Z,14.20
2022-12-19T23:52:02.262Z,15.40
2022-12-19T23:54:30.454Z,15.20
2022-12-19T23:56:58.726Z,14.90
2022-12-19T23:59:26.907Z,17.90
